createdAt,value
2023-04-30T00:00:09.821Z,10.61
2023-04-30T00:02:39.728Z,10.41
2023-04-30T00:05:07.698Z,10.73
2023-04-30T00:07:35.182Z,10.56
2023-04-30T00:10:02.844Z,10.89
2023-04-30T00:12:30.086Z,10.57
2023-04-30T00:14:57.280Z,10.93
2023-04-30T00:17:24.470Z,10.96
2023-04-30T00:19:52.177Z,10.97
2023-04-30T00:22:19.530Z,10.72
2023-04-30T00:24:46.657Z,10.83
2023-04-30T00:27:13.737Z,10.52
2023-04-30T00:29:41.625Z,10.42
2023-04-30T00:32:09.191Z,10.79
2023-04-30T00:34:36.440Z,10.22
2023-04-30T00:37:03.882Z,10.65
2023-04-30T00:39:30.873Z,10.86
2023-04-30T00:41:58.055Z,10.86
2023-04-30T00:44:25.134Z,10.78
2023-04-30T00:46:52.325Z,10.85
2023-04-30T00:49:19.393Z,10.76
2023-04-30T00:51:46.910Z,10.41
2023-04-30T00:54:14.843Z,9.86
2023-04-30T00:56:42.150Z,10.49
2023-04-30T00:59:09.454Z,10.80
2023-04-30T01:01:37.556Z,10.88
2023-04-30T01:04:05.435Z,10.72
2023-04-30T01:06:33.292Z,9.71
2023-04-30T01:09:00.563Z,10.76
2023-04-30T01:11:59.893Z,10.72
2023-04-30T01:14:56.207Z,10.70
2023-04-30T01:17:32.353Z,10.71
2023-04-30T01:20:00.438Z,10.22
2023-04-30T01:22:27.661Z,10.71
2023-04-30T01:25:19.890Z,10.16
2023-04-30T01:28:03.755Z,10.72
2023-04-30T01:30:32.750Z,10.61
2023-04-30T01:32:59.854Z,9.94
2023-04-30T01:35:44.799Z,10.04
2023-04-30T01:38:26.457Z,10.45
2023-04-30T01:41:32.134Z,10.47
2023-04-30T01:44:17.937Z,10.40
2023-04-30T01:46:56.492Z,10.13
2023-04-30T01:49:30.634Z,10.45
2023-04-30T01:52:12.197Z,10.09
2023-04-30T01:54:56.685Z,10.45
2023-04-30T01:57:38.736Z,10.42
2023-04-30T02:00:10.616Z,10.34
2023-04-30T02:02:40.516Z,10.43
2023-04-30T02:05:07.996Z,10.09
2023-04-30T02:07:44.875Z,9.97
2023-04-30T02:10:16.637Z,9.99
2023-04-30T02:12:43.628Z,10.15
2023-04-30T02:15:11.153Z,10.13
2023-04-30T02:17:40.870Z,9.74
2023-04-30T02:20:09.181Z,10.27
2023-04-30T02:22:37.475Z,10.06
2023-04-30T02:25:05.029Z,10.09
2023-04-30T02:27:33.262Z,10.17
2023-04-30T02:30:00.981Z,9.70
2023-04-30T02:32:28.047Z,10.27
2023-04-30T02:34:55.243Z,9.93
2023-04-30T02:37:22.866Z,10.12
2023-04-30T02:39:52.646Z,9.93
2023-04-30T02:42:19.994Z,9.70
2023-04-30T02:44:47.047Z,9.99
2023-04-30T02:47:14.174Z,10.24
2023-04-30T02:49:41.442Z,9.53
2023-04-30T02:52:10.135Z,10.17
2023-04-30T02:54:43.260Z,10.20
2023-04-30T02:57:10.937Z,10.13
2023-04-30T02:59:39.085Z,9.64
2023-04-30T03:02:06.252Z,9.98
2023-04-30T03:04:33.323Z,10.04
2023-04-30T03:07:00.647Z,10.11
2023-04-30T03:09:27.834Z,9.64
2023-04-30T03:11:54.771Z,10.03
2023-04-30T03:14:21.741Z,9.91
2023-04-30T03:16:49.433Z,10.13
2023-04-30T03:19:16.825Z,10.03
2023-04-30T03:21:43.896Z,9.68
2023-04-30T03:24:10.997Z,8.88
2023-04-30T03:26:38.272Z,9.64
2023-04-30T03:29:08.048Z,9.79
2023-04-30T03:31:35.157Z,9.82
2023-04-30T03:34:02.283Z,9.64
2023-04-30T03:36:29.208Z,10.01
2023-04-30T03:38:56.286Z,9.91
2023-04-30T03:41:24.461Z,9.91
2023-04-30T03:43:51.507Z,9.92
2023-04-30T03:46:18.923Z,9.87
2023-04-30T03:48:46.424Z,9.41
2023-04-30T03:51:13.468Z,9.83
2023-04-30T03:53:40.829Z,9.80
2023-04-30T03:56:08.284Z,9.35
2023-04-30T03:58:35.308Z,9.67
2023-04-30T04:01:02.347Z,9.80
2023-04-30T04:03:29.588Z,9.51
2023-04-30T04:05:56.793Z,9.70
2023-04-30T04:08:24.257Z,9.78
2023-04-30T04:10:51.418Z,9.75
2023-04-30T04:13:19.029Z,9.80
2023-04-30T04:15:46.166Z,9.69
2023-04-30T04:18:13.233Z,9.72
2023-04-30T04:20:40.572Z,9.45
2023-04-30T04:23:07.593Z,9.70
2023-04-30T04:25:35.464Z,9.34
2023-04-30T04:28:02.589Z,9.23
2023-04-30T04:30:29.788Z,9.45
2023-04-30T04:32:57.796Z,9.14
2023-04-30T04:35:24.866Z,9.35
2023-04-30T04:37:51.899Z,9.04
2023-04-30T04:40:19.022Z,9.22
2023-04-30T04:42:45.957Z,9.64
2023-04-30T04:45:13.155Z,9.80
2023-04-30T04:47:40.372Z,9.50
2023-04-30T04:50:08.040Z,9.73
2023-04-30T04:52:35.360Z,9.52
2023-04-30T04:55:05.055Z,9.67
2023-04-30T04:57:33.344Z,9.47
2023-04-30T05:00:06.694Z,9.76
2023-04-30T05:02:33.808Z,9.37
2023-04-30T05:05:01.883Z,9.50
2023-04-30T05:07:30.086Z,9.49
2023-04-30T05:09:57.342Z,9.55
2023-04-30T05:12:24.710Z,9.49
2023-04-30T05:14:51.777Z,10.05
2023-04-30T05:17:18.821Z,10.07
2023-04-30T05:19:47.716Z,10.15
2023-04-30T05:22:14.776Z,9.89
2023-04-30T05:24:41.937Z,10.22
2023-04-30T05:27:09.347Z,9.95
2023-04-30T05:29:36.468Z,10.48
2023-04-30T05:32:03.666Z,10.22
2023-04-30T05:34:30.908Z,10.30
2023-04-30T05:36:57.869Z,10.75
2023-04-30T05:39:24.921Z,10.60
2023-04-30T05:41:53.372Z,10.64
2023-04-30T05:44:20.622Z,10.64
2023-04-30T05:46:47.588Z,10.95
2023-04-30T05:49:14.729Z,10.80
2023-04-30T05:51:41.888Z,10.84
2023-04-30T05:54:08.967Z,10.98
2023-04-30T05:56:36.102Z,11.07
2023-04-30T05:59:03.217Z,10.75
2023-04-30T06:01:30.315Z,10.69
2023-04-30T06:03:58.730Z,10.89
2023-04-30T06:06:25.963Z,10.59
2023-04-30T06:08:53.575Z,10.46
2023-04-30T06:11:21.243Z,10.69
2023-04-30T06:13:49.808Z,10.30
2023-04-30T06:16:19.692Z,11.04
2023-04-30T06:18:46.677Z,10.70
2023-04-30T06:21:13.612Z,11.20
2023-04-30T06:23:40.649Z,10.68
2023-04-30T06:26:09.864Z,11.04
2023-04-30T06:28:36.967Z,11.14
2023-04-30T06:31:04.204Z,11.17
2023-04-30T06:33:31.452Z,10.82
2023-04-30T06:35:58.478Z,11.02
2023-04-30T06:38:25.780Z,11.26
2023-04-30T06:40:53.032Z,11.27
2023-04-30T06:43:20.058Z,11.14
2023-04-30T06:45:47.164Z,11.38
2023-04-30T06:48:14.473Z,11.02
2023-04-30T06:50:45.251Z,10.06
2023-04-30T06:53:12.919Z,11.23
2023-04-30T06:55:41.211Z,11.80
2023-04-30T06:58:08.421Z,12.00
2023-04-30T07:00:35.559Z,11.70
2023-04-30T07:03:02.867Z,11.73
2023-04-30T07:05:33.395Z,11.91
2023-04-30T07:08:03.573Z,11.59
2023-04-30T07:10:31.746Z,12.11
2023-04-30T07:12:59.466Z,12.10
2023-04-30T07:15:26.544Z,11.70
2023-04-30T07:17:53.747Z,11.67
2023-04-30T07:20:21.018Z,11.90
2023-04-30T07:22:48.034Z,11.94
2023-04-30T07:25:15.345Z,11.77
2023-04-30T07:27:42.451Z,11.90
2023-04-30T07:30:10.802Z,11.84
2023-04-30T07:32:40.021Z,11.48
2023-04-30T07:35:07.635Z,11.71
2023-04-30T07:37:35.943Z,12.21
2023-04-30T07:40:04.498Z,11.78
2023-04-30T07:42:31.619Z,11.85
2023-04-30T07:44:58.762Z,11.82
2023-04-30T07:47:26.054Z,11.71
2023-04-30T07:49:53.526Z,11.60
2023-04-30T07:52:20.782Z,12.36
2023-04-30T07:54:48.152Z,11.96
2023-04-30T07:57:15.192Z,11.99
2023-04-30T07:59:42.217Z,12.10
2023-04-30T08:02:09.881Z,12.21
2023-04-30T08:04:36.911Z,12.34
2023-04-30T08:07:04.847Z,12.10
2023-04-30T08:09:32.329Z,11.29
2023-04-30T08:11:59.418Z,11.67
2023-04-30T08:14:26.451Z,12.65
2023-04-30T08:16:53.649Z,12.77
2023-04-30T08:19:20.734Z,12.35
2023-04-30T08:21:47.850Z,12.45
2023-04-30T08:24:14.783Z,12.86
2023-04-30T08:26:41.981Z,12.89
2023-04-30T08:29:09.081Z,12.96
2023-04-30T08:31:36.762Z,12.92
2023-04-30T08:34:03.788Z,13.05
2023-04-30T08:36:31.047Z,13.24
2023-04-30T08:38:57.972Z,13.00
2023-04-30T08:41:27.228Z,13.16
2023-04-30T08:43:54.179Z,13.48
2023-04-30T08:46:23.502Z,13.35
2023-04-30T08:48:50.911Z,13.49
2023-04-30T08:51:18.074Z,13.45
2023-04-30T08:53:46.445Z,13.73
2023-04-30T08:56:13.460Z,13.80
2023-04-30T08:58:41.312Z,14.07
2023-04-30T09:01:10.355Z,13.74
2023-04-30T09:03:38.229Z,14.20
2023-04-30T09:06:05.337Z,14.25
2023-04-30T09:08:51.446Z,14.35
2023-04-30T09:11:22.822Z,14.29
2023-04-30T09:13:54.772Z,14.27
2023-04-30T09:16:23.020Z,13.96
2023-04-30T09:18:51.065Z,14.08
2023-04-30T09:21:32.050Z,13.61
2023-04-30T09:24:01.842Z,13.45
2023-04-30T09:26:39.272Z,13.73
2023-04-30T09:29:10.479Z,13.30
2023-04-30T09:31:39.009Z,13.40
2023-04-30T09:34:06.493Z,12.89
2023-04-30T09:36:34.736Z,13.20
2023-04-30T09:39:11.475Z,12.83
2023-04-30T09:41:39.885Z,12.84
2023-04-30T09:44:06.855Z,12.76
2023-04-30T09:46:37.458Z,13.00
2023-04-30T09:49:07.371Z,13.01
2023-04-30T09:51:35.867Z,12.78
2023-04-30T09:54:04.749Z,12.54
2023-04-30T09:56:39.598Z,12.66
2023-04-30T09:59:09.265Z,12.85
2023-04-30T10:01:40.349Z,13.10
2023-04-30T10:04:08.912Z,13.05
2023-04-30T10:06:36.529Z,12.83
2023-04-30T10:09:06.786Z,13.38
2023-04-30T10:11:37.873Z,13.23
2023-04-30T10:14:11.938Z,13.49
2023-04-30T10:17:13.641Z,13.64
2023-04-30T10:19:47.828Z,13.44
2023-04-30T10:22:15.023Z,13.65
2023-04-30T10:24:43.746Z,13.49
2023-04-30T10:27:10.834Z,13.65
2023-04-30T10:29:38.215Z,13.44
2023-04-30T10:32:06.410Z,13.46
2023-04-30T10:34:42.839Z,13.75
2023-04-30T10:37:18.752Z,13.47
2023-04-30T10:39:47.221Z,13.33
2023-04-30T10:42:14.332Z,13.06
2023-04-30T10:44:41.291Z,12.90
2023-04-30T10:47:08.705Z,13.17
2023-04-30T10:49:36.264Z,13.47
2023-04-30T10:52:05.267Z,13.19
2023-04-30T10:54:35.238Z,13.22
2023-04-30T10:57:14.433Z,13.26
2023-04-30T10:59:53.363Z,13.37
2023-04-30T11:02:21.570Z,13.44
2023-04-30T11:05:10.371Z,13.39
2023-04-30T11:07:37.805Z,13.36
2023-04-30T11:10:08.992Z,13.45
2023-04-30T11:12:41.225Z,13.55
2023-04-30T11:15:14.133Z,13.55
2023-04-30T11:17:43.283Z,13.49
2023-04-30T11:20:13.219Z,13.49
2023-04-30T11:22:40.310Z,13.44
2023-04-30T11:25:09.902Z,13.52
2023-04-30T11:27:38.730Z,13.65
2023-04-30T11:30:12.772Z,14.06
2023-04-30T11:32:40.479Z,13.60
2023-04-30T11:35:08.193Z,14.36
2023-04-30T11:37:37.874Z,14.10
2023-04-30T11:40:11.199Z,14.64
2023-04-30T11:42:39.689Z,14.63
2023-04-30T11:45:07.786Z,14.94
2023-04-30T11:47:45.890Z,15.06
2023-04-30T11:50:29.805Z,14.45
2023-04-30T11:52:58.199Z,14.64
2023-04-30T11:55:26.764Z,15.31
2023-04-30T11:57:56.237Z,15.36
2023-04-30T12:00:28.328Z,15.52
2023-04-30T12:02:56.817Z,15.52
2023-04-30T12:05:26.935Z,15.44
2023-04-30T12:08:06.645Z,15.64
2023-04-30T12:10:34.383Z,15.61
2023-04-30T12:13:01.712Z,15.34
2023-04-30T12:15:29.305Z,15.93
2023-04-30T12:17:58.365Z,16.29
2023-04-30T12:20:28.435Z,16.29
2023-04-30T12:22:56.228Z,16.54
2023-04-30T12:25:23.787Z,16.57
2023-04-30T12:27:52.966Z,16.39
2023-04-30T12:30:21.713Z,16.35
2023-04-30T12:32:53.734Z,16.32
2023-04-30T12:35:25.080Z,16.80
2023-04-30T12:38:01.528Z,16.70
2023-04-30T12:40:28.661Z,16.56
2023-04-30T12:43:02.741Z,16.81
2023-04-30T12:45:48.288Z,16.81
2023-04-30T12:48:16.485Z,16.40
2023-04-30T12:50:48.179Z,16.86
2023-04-30T12:53:15.487Z,16.95
2023-04-30T12:55:42.488Z,16.21
2023-04-30T12:58:12.042Z,16.88
2023-04-30T13:00:44.984Z,16.99
2023-04-30T13:03:13.596Z,16.92
2023-04-30T13:05:42.337Z,16.56
2023-04-30T13:08:09.912Z,16.42
2023-04-30T13:10:36.880Z,16.32
2023-04-30T13:13:03.825Z,16.70
2023-04-30T13:15:31.168Z,16.66
2023-04-30T13:17:58.321Z,16.71
2023-04-30T13:20:25.588Z,16.62
2023-04-30T13:22:52.716Z,16.16
2023-04-30T13:25:20.537Z,16.41
2023-04-30T13:27:47.646Z,16.00
2023-04-30T13:30:14.836Z,16.24
2023-04-30T13:32:43.245Z,16.35
2023-04-30T13:35:11.535Z,16.06
2023-04-30T13:37:39.381Z,16.13
2023-04-30T13:40:08.232Z,16.66
2023-04-30T13:42:38.474Z,16.78
2023-04-30T13:45:09.207Z,16.35
2023-04-30T13:47:36.366Z,17.01
2023-04-30T13:50:04.494Z,17.00
2023-04-30T13:52:31.948Z,16.86
2023-04-30T13:54:59.288Z,16.99
2023-04-30T13:57:26.852Z,16.69
2023-04-30T13:59:54.756Z,16.95
2023-04-30T14:02:22.002Z,16.94
2023-04-30T14:05:02.023Z,16.64
2023-04-30T14:07:29.744Z,16.66
2023-04-30T14:09:56.811Z,16.40
2023-04-30T14:12:24.794Z,16.36
2023-04-30T14:14:51.852Z,16.08
2023-04-30T14:17:19.027Z,15.90
2023-04-30T14:19:46.309Z,15.89
2023-04-30T14:22:13.565Z,16.10
2023-04-30T14:24:40.858Z,15.92
2023-04-30T14:27:08.040Z,15.41
2023-04-30T14:29:35.178Z,15.63
2023-04-30T14:32:02.503Z,15.52
2023-04-30T14:34:29.642Z,14.98
2023-04-30T14:36:59.579Z,14.73
2023-04-30T14:39:27.060Z,14.47
2023-04-30T14:41:54.362Z,14.71
2023-04-30T14:44:24.467Z,14.52
2023-04-30T14:46:51.816Z,13.92
2023-04-30T14:49:19.227Z,14.33
2023-04-30T14:51:46.466Z,14.24
2023-04-30T14:54:13.552Z,12.82
2023-04-30T14:56:41.248Z,14.39
2023-04-30T14:59:08.277Z,13.57
2023-04-30T15:01:35.361Z,14.34
2023-04-30T15:04:02.601Z,14.15
2023-04-30T15:06:29.816Z,14.26
2023-04-30T15:08:56.925Z,13.71
2023-04-30T15:11:24.348Z,13.80
2023-04-30T15:13:51.740Z,14.30
2023-04-30T15:16:18.924Z,14.20
2023-04-30T15:18:46.157Z,14.58
2023-04-30T15:21:13.331Z,14.61
2023-04-30T15:23:40.462Z,14.86
2023-04-30T15:26:07.936Z,13.62
2023-04-30T15:28:35.146Z,14.96
2023-04-30T15:31:03.395Z,15.01
2023-04-30T15:33:31.615Z,14.51
2023-04-30T15:35:59.541Z,14.84
2023-04-30T15:38:26.640Z,15.04
2023-04-30T15:40:53.725Z,14.86
2023-04-30T15:43:21.545Z,14.90
2023-04-30T15:45:48.608Z,13.90
2023-04-30T15:48:16.040Z,15.02
2023-04-30T15:50:43.138Z,14.69
2023-04-30T15:53:10.182Z,14.78
2023-04-30T15:55:37.884Z,14.57
2023-04-30T15:58:04.956Z,14.69
2023-04-30T16:00:33.828Z,14.65
2023-04-30T16:03:01.317Z,14.36
2023-04-30T16:05:28.414Z,14.40
2023-04-30T16:07:55.916Z,14.15
2023-04-30T16:10:27.173Z,14.10
2023-04-30T16:12:54.175Z,13.92
2023-04-30T16:15:21.223Z,14.17
2023-04-30T16:17:48.348Z,14.21
2023-04-30T16:20:15.270Z,13.60
2023-04-30T16:22:42.644Z,14.14
2023-04-30T16:25:10.375Z,14.06
2023-04-30T16:27:37.679Z,13.81
2023-04-30T16:30:06.139Z,13.61
2023-04-30T16:32:33.611Z,13.46
2023-04-30T16:35:00.718Z,13.73
2023-04-30T16:37:29.526Z,14.13
2023-04-30T16:39:57.123Z,13.97
2023-04-30T16:42:24.688Z,13.95
2023-04-30T16:44:51.597Z,14.08
2023-04-30T16:47:19.534Z,13.73
2023-04-30T16:49:46.545Z,13.88
2023-04-30T16:52:13.975Z,13.21
2023-04-30T16:54:41.055Z,13.55
2023-04-30T16:57:08.176Z,14.02
2023-04-30T16:59:35.114Z,13.70
2023-04-30T17:02:02.828Z,14.24
2023-04-30T17:04:29.803Z,14.26
2023-04-30T17:06:57.732Z,14.30
2023-04-30T17:09:24.962Z,13.71
2023-04-30T17:11:51.925Z,13.96
2023-04-30T17:14:19.009Z,13.76
2023-04-30T17:16:47.093Z,13.98
2023-04-30T17:19:14.388Z,13.47
2023-04-30T17:21:41.412Z,14.13
2023-04-30T17:24:08.488Z,14.18
2023-04-30T17:26:35.684Z,14.31
2023-04-30T17:29:02.764Z,13.77
2023-04-30T17:31:31.380Z,13.79
2023-04-30T17:34:00.262Z,14.34
2023-04-30T17:36:30.404Z,13.92
2023-04-30T17:38:57.594Z,14.18
2023-04-30T17:41:24.725Z,14.05
2023-04-30T17:43:51.865Z,14.18
2023-04-30T17:46:18.905Z,13.45
2023-04-30T17:48:46.033Z,13.54
2023-04-30T17:51:13.142Z,13.34
2023-04-30T17:53:40.834Z,13.81
2023-04-30T17:56:09.029Z,13.83
2023-04-30T17:58:37.684Z,13.81
2023-04-30T18:01:06.470Z,13.61
2023-04-30T18:03:33.638Z,13.29
2023-04-30T18:06:00.751Z,13.84
2023-04-30T18:08:27.840Z,13.69
2023-04-30T18:10:55.334Z,13.22
2023-04-30T18:13:22.593Z,13.10
2023-04-30T18:15:49.562Z,13.25
2023-04-30T18:18:16.650Z,13.21
2023-04-30T18:20:43.604Z,12.51
2023-04-30T18:23:10.630Z,13.36
2023-04-30T18:25:37.957Z,13.49
2023-04-30T18:28:05.196Z,13.34
2023-04-30T18:30:32.407Z,12.88
2023-04-30T18:32:59.670Z,12.61
2023-04-30T18:35:28.294Z,12.98
2023-04-30T18:37:55.984Z,12.82
2023-04-30T18:40:23.278Z,12.42
2023-04-30T18:42:50.415Z,12.95
2023-04-30T18:45:18.339Z,12.90
2023-04-30T18:47:45.595Z,12.54
2023-04-30T18:50:17.543Z,12.72
2023-04-30T18:52:45.302Z,12.68
2023-04-30T18:55:14.009Z,12.81
2023-04-30T18:57:42.576Z,12.64
2023-04-30T19:00:12.284Z,12.61
2023-04-30T19:02:39.484Z,12.38
2023-04-30T19:05:07.736Z,12.46
2023-04-30T19:07:34.960Z,12.39
2023-04-30T19:10:03.953Z,12.39
2023-04-30T19:12:31.245Z,12.26
2023-04-30T19:14:58.981Z,12.00
2023-04-30T19:17:26.013Z,12.16
2023-04-30T19:19:53.487Z,11.93
2023-04-30T19:22:20.550Z,11.69
2023-04-30T19:24:47.626Z,11.65
2023-04-30T19:27:14.566Z,11.81
2023-04-30T19:29:41.687Z,11.63
2023-04-30T19:32:09.883Z,11.53
2023-04-30T19:34:36.944Z,11.47
2023-04-30T19:37:03.912Z,11.37
2023-04-30T19:39:31.874Z,11.32
2023-04-30T19:41:59.100Z,11.41
2023-04-30T19:44:26.189Z,11.51
2023-04-30T19:46:53.244Z,11.42
2023-04-30T19:49:20.184Z,11.32
2023-04-30T19:51:47.284Z,11.28
2023-04-30T19:54:14.611Z,10.97
2023-04-30T19:56:42.030Z,11.37
2023-04-30T19:59:09.939Z,11.29
2023-04-30T20:01:37.054Z,11.37
2023-04-30T20:04:04.412Z,11.25
2023-04-30T20:06:31.800Z,10.84
2023-04-30T20:08:59.622Z,11.27
2023-04-30T20:11:26.602Z,10.93
2023-04-30T20:13:55.560Z,11.11
2023-04-30T20:16:23.103Z,11.18
2023-04-30T20:18:50.233Z,11.22
2023-04-30T20:21:19.938Z,11.14
2023-04-30T20:23:47.902Z,11.10
2023-04-30T20:26:14.986Z,10.76
2023-04-30T20:28:42.133Z,11.05
2023-04-30T20:31:09.895Z,10.53
2023-04-30T20:33:37.133Z,10.55
2023-04-30T20:36:04.685Z,10.93
2023-04-30T20:38:31.688Z,10.78
2023-04-30T20:40:59.764Z,10.37
2023-04-30T20:43:26.997Z,10.89
2023-04-30T20:45:57.407Z,10.69
2023-04-30T20:48:25.627Z,10.93
2023-04-30T20:50:52.875Z,10.74
2023-04-30T20:53:20.013Z,10.43
2023-04-30T20:55:47.044Z,10.82
2023-04-30T20:58:14.372Z,10.41
2023-04-30T21:00:41.593Z,10.65
2023-04-30T21:03:09.750Z,10.35
2023-04-30T21:05:36.897Z,10.80
2023-04-30T21:08:04.073Z,10.24
2023-04-30T21:10:36.452Z,10.28
2023-04-30T21:13:09.118Z,10.51
2023-04-30T21:15:36.654Z,10.13
2023-04-30T21:18:04.122Z,10.85
2023-04-30T21:20:31.877Z,10.88
2023-04-30T21:22:59.226Z,10.87
2023-04-30T21:25:26.880Z,10.60
2023-04-30T21:27:53.993Z,10.58
2023-04-30T21:30:25.062Z,10.41
2023-04-30T21:32:58.472Z,10.41
2023-04-30T21:35:27.796Z,10.32
2023-04-30T21:37:55.097Z,10.50
2023-04-30T21:40:22.174Z,10.66
2023-04-30T21:42:49.205Z,10.45
2023-04-30T21:45:20.054Z,9.85
2023-04-30T21:47:47.907Z,9.99
2023-04-30T21:50:15.016Z,10.24
2023-04-30T21:52:42.066Z,9.96
2023-04-30T21:55:09.825Z,10.25
2023-04-30T21:57:36.827Z,10.43
2023-04-30T22:00:07.264Z,10.35
2023-04-30T22:02:37.179Z,10.28
2023-04-30T22:05:04.473Z,9.40
2023-04-30T22:07:31.475Z,10.02
2023-04-30T22:09:58.754Z,10.03
2023-04-30T22:12:26.205Z,10.18
2023-04-30T22:14:54.908Z,9.91
2023-04-30T22:17:22.178Z,10.10
2023-04-30T22:19:49.159Z,9.45
2023-04-30T22:22:16.653Z,10.05
2023-04-30T22:24:43.700Z,9.68
2023-04-30T22:27:13.582Z,10.00
2023-04-30T22:29:41.369Z,9.55
2023-04-30T22:32:09.544Z,9.43
2023-04-30T22:34:39.399Z,9.92
2023-04-30T22:37:07.228Z,9.70
2023-04-30T22:39:34.170Z,9.89
2023-04-30T22:42:01.158Z,9.70
2023-04-30T22:44:29.860Z,9.51
2023-04-30T22:46:58.250Z,9.87
2023-04-30T22:49:31.242Z,9.26
2023-04-30T22:51:59.269Z,9.61
2023-04-30T22:54:26.409Z,9.53
2023-04-30T22:56:53.443Z,9.74
2023-04-30T22:59:20.519Z,8.84
2023-04-30T23:01:47.630Z,9.72
2023-04-30T23:04:14.674Z,9.66
2023-04-30T23:06:43.052Z,9.32
2023-04-30T23:09:10.411Z,9.49
2023-04-30T23:11:37.388Z,9.33
2023-04-30T23:14:04.844Z,9.55
2023-04-30T23:16:32.062Z,9.34
2023-04-30T23:18:59.299Z,9.51
2023-04-30T23:21:26.950Z,9.13
2023-04-30T23:23:54.082Z,9.48
2023-04-30T23:26:21.468Z,9.26
2023-04-30T23:28:51.780Z,9.21
2023-04-30T23:31:18.799Z,9.51
2023-04-30T23:33:49.849Z,9.49
2023-04-30T23:36:16.891Z,9.01
2023-04-30T23:38:44.106Z,8.84
2023-04-30T23:41:11.117Z,9.55
2023-04-30T23:43:38.306Z,9.43
2023-04-30T23:46:05.758Z,8.88
2023-04-30T23:48:32.795Z,9.01
2023-04-30T23:51:05.075Z,9.39
2023-04-30T23:53:32.350Z,8.90
2023-04-30T23:56:02.439Z,9.09
2023-04-30T23:58:32.532Z,8.97
